createdAt,value
2022-12-08T00:01:33.568Z,19.38
2022-12-08T00:06:54.109Z,19.52
2022-12-08T00:09:25.864Z,19.08
2022-12-08T00:11:53.393Z,17.58
2022-12-08T00:14:24.990Z,19.88
2022-12-08T00:19:20.498Z,18.67
2022-12-08T00:21:48.120Z,18.65
2022-12-08T00:24:16.139Z,18.63
2022-12-08T00:26:43.750Z,17.67
2022-12-08T00:29:17.041Z,18.48
2022-12-08T00:31:45.292Z,17.85
2022-12-08T00:34:16.638Z,15.65
2022-12-08T00:36:44.861Z,17.88
2022-12-08T00:39:13.897Z,19.75
2022-12-08T00:42:00.244Z,16.73
2022-12-08T00:44:28.111Z,18.83
2022-12-08T00:46:55.886Z,19.45
2022-12-08T00:49:23.752Z,18.20
2022-12-08T00:51:51.373Z,16.23
2022-12-08T00:54:19.181Z,19.33
2022-12-08T00:56:46.746Z,19.45
2022-12-08T00:59:14.672Z,19.65
2022-12-08T01:01:45.384Z,20.00
2022-12-08T01:04:15.727Z,18.55
2022-12-08T01:06:44.421Z,23.50
2022-12-08T01:09:13.748Z,25.10
2022-12-08T01:11:41.340Z,21.27
2022-12-08T01:14:08.875Z,18.88
2022-12-08T01:16:37.173Z,20.08
2022-12-08T01:19:05.023Z,21.48
2022-12-08T01:21:32.749Z,21.48
2022-12-08T01:24:01.015Z,19.48
2022-12-08T01:26:28.572Z,22.00
2022-12-08T01:28:56.135Z,21.30
2022-12-08T01:31:24.320Z,20.77
2022-12-08T01:33:51.939Z,20.88
2022-12-08T01:36:27.888Z,20.30
2022-12-08T01:38:58.220Z,20.02
2022-12-08T01:41:28.725Z,20.30
2022-12-08T01:44:02.233Z,20.15
2022-12-08T01:46:32.240Z,23.15
2022-12-08T01:49:21.457Z,22.98
2022-12-08T01:52:00.981Z,22.25
2022-12-08T01:54:32.068Z,25.58
2022-12-08T01:57:06.409Z,22.85
2022-12-08T02:02:18.340Z,23.10
2022-12-08T02:04:46.029Z,24.05
2022-12-08T02:07:16.373Z,22.75
2022-12-08T02:09:45.375Z,23.83
2022-12-08T02:12:13.228Z,23.77
2022-12-08T02:14:40.910Z,22.77
2022-12-08T02:17:14.916Z,23.48
2022-12-08T02:20:43.985Z,23.02
2022-12-08T02:23:20.041Z,23.58
2022-12-08T02:25:59.355Z,23.80
2022-12-08T02:28:41.836Z,23.55
2022-12-08T02:31:30.268Z,19.95
2022-12-08T02:34:21.114Z,21.92
2022-12-08T02:37:07.532Z,24.42
2022-12-08T02:40:02.073Z,21.25
2022-12-08T02:42:50.713Z,21.23
2022-12-08T02:45:39.655Z,22.42
2022-12-08T02:48:09.131Z,21.27
2022-12-08T02:50:36.880Z,21.88
2022-12-08T02:56:10.580Z,21.75
2022-12-08T02:59:17.027Z,21.25
2022-12-08T03:01:50.669Z,21.33
2022-12-08T03:04:21.092Z,21.50
2022-12-08T03:07:10.882Z,20.42
2022-12-08T03:10:06.489Z,20.38
2022-12-08T03:12:51.286Z,20.67
2022-12-08T03:15:21.328Z,21.58
2022-12-08T03:17:53.681Z,22.48
2022-12-08T03:20:24.417Z,22.55
2022-12-08T03:22:55.710Z,22.70
2022-12-08T03:25:27.547Z,23.27
2022-12-08T03:27:55.117Z,23.45
2022-12-08T03:30:22.808Z,24.23
2022-12-08T03:33:01.835Z,22.30
2022-12-08T03:35:33.398Z,22.75
2022-12-08T03:38:07.517Z,22.73
2022-12-08T03:40:35.376Z,22.13
2022-12-08T03:43:03.283Z,21.90
2022-12-08T03:45:31.007Z,21.58
2022-12-08T03:47:58.622Z,22.08
2022-12-08T03:50:26.848Z,23.42
2022-12-08T03:52:54.372Z,22.52
2022-12-08T03:55:22.441Z,23.10
2022-12-08T03:57:49.917Z,23.65
2022-12-08T04:00:17.870Z,24.83
2022-12-08T04:02:45.518Z,22.42
2022-12-08T04:05:13.288Z,23.55
2022-12-08T04:07:41.002Z,23.15
2022-12-08T04:10:09.483Z,21.30
2022-12-08T04:12:37.008Z,22.45
2022-12-08T04:15:05.053Z,22.27
2022-12-08T04:17:32.532Z,22.52
2022-12-08T04:20:00.110Z,22.55
2022-12-08T04:22:27.873Z,24.30
2022-12-08T04:24:55.468Z,22.67
2022-12-08T04:27:23.134Z,22.02
2022-12-08T04:29:50.746Z,21.48
2022-12-08T04:32:18.419Z,22.08
2022-12-08T04:34:46.608Z,23.05
2022-12-08T04:37:14.221Z,22.98
2022-12-08T04:39:41.871Z,22.20
2022-12-08T04:42:09.454Z,20.30
2022-12-08T04:44:37.019Z,22.15
2022-12-08T04:47:04.920Z,22.00
2022-12-08T04:49:32.495Z,22.05
2022-12-08T04:52:00.233Z,23.27
2022-12-08T04:54:28.312Z,22.42
2022-12-08T04:56:55.977Z,22.35
2022-12-08T04:59:23.573Z,22.98
2022-12-08T05:01:51.171Z,22.83
2022-12-08T05:04:18.800Z,22.65
2022-12-08T05:06:46.333Z,20.52
2022-12-08T05:09:13.955Z,20.10
2022-12-08T05:11:46.940Z,20.30
2022-12-08T05:14:18.507Z,20.02
2022-12-08T05:16:47.192Z,21.35
2022-12-08T05:19:15.738Z,22.13
2022-12-08T05:21:43.699Z,23.42
2022-12-08T05:24:11.232Z,22.98
2022-12-08T05:26:38.756Z,21.23
2022-12-08T05:29:06.357Z,22.58
2022-12-08T05:31:33.935Z,22.13
2022-12-08T05:34:03.392Z,20.60
2022-12-08T05:36:31.208Z,20.95
2022-12-08T05:38:58.872Z,21.55
2022-12-08T05:41:26.508Z,19.85
2022-12-08T05:43:54.057Z,20.65
2022-12-08T05:46:22.031Z,21.92
2022-12-08T05:48:49.781Z,20.42
2022-12-08T05:51:23.463Z,21.33
2022-12-08T05:53:52.607Z,22.67
2022-12-08T05:56:21.105Z,21.48
2022-12-08T05:58:49.212Z,20.48
2022-12-08T06:01:37.505Z,19.50
2022-12-08T06:04:05.545Z,21.23
2022-12-08T06:06:35.582Z,20.25
2022-12-08T06:09:05.144Z,21.55
2022-12-08T06:11:33.570Z,19.95
2022-12-08T06:14:01.987Z,18.45
2022-12-08T06:16:30.664Z,18.08
2022-12-08T06:18:59.298Z,19.40
2022-12-08T06:21:26.866Z,21.13
2022-12-08T06:23:55.483Z,19.77
2022-12-08T06:26:23.148Z,19.02
2022-12-08T06:28:50.966Z,20.63
2022-12-08T06:31:21.001Z,19.27
2022-12-08T06:33:49.112Z,18.55
2022-12-08T06:36:18.813Z,19.30
2022-12-08T06:38:46.891Z,20.40
2022-12-08T06:41:14.760Z,21.35
2022-12-08T06:43:43.242Z,20.65
2022-12-08T06:46:14.369Z,21.23
2022-12-08T06:48:42.157Z,20.95
2022-12-08T06:51:15.776Z,19.10
2022-12-08T06:53:44.248Z,17.13
2022-12-08T06:56:12.696Z,18.30
2022-12-08T06:58:40.246Z,18.05
2022-12-08T07:01:10.840Z,19.90
2022-12-08T07:03:39.391Z,15.45
2022-12-08T07:06:07.716Z,16.55
2022-12-08T07:08:35.478Z,16.60
2022-12-08T07:11:19.655Z,17.80
2022-12-08T07:13:48.991Z,16.70
2022-12-08T07:16:16.695Z,17.20
2022-12-08T07:18:44.332Z,16.92
2022-12-08T07:21:14.991Z,15.20
2022-12-08T07:23:45.000Z,14.70
2022-12-08T07:26:13.652Z,16.60
2022-12-08T07:28:42.643Z,16.27
2022-12-08T07:31:19.253Z,16.60
2022-12-08T07:33:47.720Z,16.60
2022-12-08T07:36:15.250Z,15.75
2022-12-08T07:38:43.611Z,17.45
2022-12-08T07:41:19.878Z,18.00
2022-12-08T07:43:48.080Z,20.25
2022-12-08T07:46:19.112Z,16.27
2022-12-08T07:48:47.219Z,16.48
2022-12-08T07:51:16.738Z,16.27
2022-12-08T07:53:50.032Z,21.10
2022-12-08T07:56:21.434Z,20.33
2022-12-08T07:58:49.105Z,21.83
2022-12-08T08:01:36.086Z,20.42
2022-12-08T08:04:05.473Z,19.05
2022-12-08T08:06:34.849Z,18.88
2022-12-08T08:09:02.596Z,18.58
2022-12-08T08:11:30.173Z,16.77
2022-12-08T08:13:58.042Z,19.10
2022-12-08T08:16:25.875Z,18.23
2022-12-08T08:18:53.704Z,20.55
2022-12-08T08:21:44.285Z,21.52
2022-12-08T08:24:09.612Z,19.80
2022-12-08T08:26:37.659Z,19.25
2022-12-08T08:29:05.268Z,20.33
2022-12-08T08:31:33.077Z,20.83
2022-12-08T08:34:05.105Z,21.05
2022-12-08T08:36:32.990Z,20.90
2022-12-08T08:39:00.512Z,19.30
2022-12-08T08:41:28.069Z,20.83
2022-12-08T08:43:55.643Z,19.10
2022-12-08T08:46:23.280Z,20.35
2022-12-08T08:48:50.812Z,19.05
2022-12-08T08:51:23.718Z,16.75
2022-12-08T08:53:51.563Z,16.17
2022-12-08T08:56:20.026Z,15.68
2022-12-08T08:58:49.739Z,15.98
2022-12-08T09:01:21.324Z,15.23
2022-12-08T09:06:17.721Z,17.35
2022-12-08T09:08:45.977Z,15.40
2022-12-08T09:11:13.900Z,15.77
2022-12-08T09:13:41.888Z,17.13
2022-12-08T09:16:11.539Z,16.70
2022-12-08T09:18:39.150Z,16.55
2022-12-08T09:21:09.400Z,16.70
2022-12-08T09:23:36.968Z,16.13
2022-12-08T09:26:05.230Z,15.95
2022-12-08T09:28:33.571Z,16.20
2022-12-08T09:31:01.811Z,16.45
2022-12-08T09:33:29.402Z,16.27
2022-12-08T09:35:57.001Z,15.70
2022-12-08T09:38:24.637Z,16.60
2022-12-08T09:40:54.092Z,16.67
2022-12-08T09:43:45.684Z,15.90
2022-12-08T09:46:15.271Z,17.98
2022-12-08T09:48:47.998Z,16.13
2022-12-08T09:51:16.245Z,16.70
2022-12-08T09:53:51.486Z,15.50
2022-12-08T09:56:24.628Z,17.38
2022-12-08T09:59:14.722Z,17.60
2022-12-08T10:01:42.470Z,16.05
2022-12-08T10:04:30.020Z,16.98
2022-12-08T10:07:25.500Z,18.00
2022-12-08T10:10:12.444Z,15.63
2022-12-08T10:13:06.166Z,16.02
2022-12-08T10:15:58.915Z,17.55
2022-12-08T10:18:31.910Z,17.95
2022-12-08T10:21:18.159Z,17.25
2022-12-08T10:23:52.776Z,17.55
2022-12-08T10:26:22.153Z,17.95
2022-12-08T10:28:50.409Z,18.08
2022-12-08T10:31:24.086Z,18.83
2022-12-08T10:34:00.380Z,18.23
2022-12-08T10:37:07.688Z,19.55
2022-12-08T10:39:45.721Z,20.00
2022-12-08T10:42:20.723Z,25.40
2022-12-08T10:45:09.849Z,30.92
2022-12-08T10:47:44.592Z,30.48
2022-12-08T10:50:15.944Z,27.08
2022-12-08T10:52:43.644Z,25.30
2022-12-08T10:55:18.075Z,22.30
2022-12-08T10:57:46.324Z,19.73
2022-12-08T11:00:16.449Z,17.95
2022-12-08T11:02:58.962Z,14.88
2022-12-08T11:05:31.168Z,13.73
2022-12-08T11:07:59.237Z,13.95
2022-12-08T11:10:42.383Z,13.68
2022-12-08T11:13:21.953Z,12.52
2022-12-08T11:15:50.624Z,13.15
2022-12-08T11:18:42.240Z,12.93
2022-12-08T11:21:18.536Z,9.63
2022-12-08T11:23:51.039Z,8.63
2022-12-08T11:26:32.260Z,7.10
2022-12-08T11:28:59.926Z,6.80
2022-12-08T11:31:50.027Z,7.03
2022-12-08T11:34:26.720Z,7.45
2022-12-08T11:36:57.411Z,7.38
2022-12-08T11:39:29.763Z,6.97
2022-12-08T11:41:58.829Z,7.80
2022-12-08T11:44:35.712Z,8.07
2022-12-08T11:47:27.513Z,7.35
2022-12-08T11:50:04.203Z,8.45
2022-12-08T11:52:45.290Z,6.03
2022-12-08T11:55:49.913Z,5.53
2022-12-08T11:58:39.287Z,6.53
2022-12-08T12:01:21.133Z,5.95
2022-12-08T12:04:12.001Z,5.53
2022-12-08T12:07:00.592Z,6.50
2022-12-08T12:09:38.696Z,6.20
2022-12-08T12:12:32.583Z,5.85
2022-12-08T12:15:30.619Z,6.20
2022-12-08T12:18:27.226Z,5.40
2022-12-08T12:21:05.306Z,5.82
2022-12-08T12:24:05.429Z,5.35
2022-12-08T12:26:37.981Z,5.22
2022-12-08T12:29:21.191Z,5.32
2022-12-08T12:31:53.497Z,5.45
2022-12-08T12:34:39.476Z,6.45
2022-12-08T12:37:10.439Z,5.10
2022-12-08T12:39:53.437Z,4.55
2022-12-08T12:42:38.484Z,4.82
2022-12-08T12:45:16.215Z,4.60
2022-12-08T12:47:56.730Z,5.10
2022-12-08T12:50:34.219Z,5.07
2022-12-08T12:53:10.613Z,4.75
2022-12-08T12:56:02.469Z,4.80
2022-12-08T12:58:30.273Z,4.90
2022-12-08T13:01:13.029Z,4.10
2022-12-08T13:03:47.451Z,4.50
2022-12-08T13:06:22.597Z,5.25
2022-12-08T13:08:53.245Z,4.60
2022-12-08T13:11:22.604Z,3.90
2022-12-08T13:14:03.319Z,5.25
2022-12-08T13:16:37.544Z,4.80
2022-12-08T13:19:13.653Z,4.40
2022-12-08T13:21:41.714Z,5.32
2022-12-08T13:24:17.770Z,5.22
2022-12-08T13:26:50.281Z,4.18
2022-12-08T13:29:23.725Z,4.63
2022-12-08T13:31:57.908Z,5.18
2022-12-08T13:34:29.812Z,5.22
2022-12-08T13:37:12.287Z,6.00
2022-12-08T13:39:39.812Z,5.25
2022-12-08T13:42:13.452Z,5.05
2022-12-08T13:57:08.913Z,5.68
2022-12-08T13:59:44.184Z,6.70
2022-12-08T14:02:47.795Z,5.93
2022-12-08T14:05:20.456Z,6.20
2022-12-08T14:07:53.340Z,5.88
2022-12-08T14:10:25.948Z,6.05
2022-12-08T14:13:01.403Z,6.47
2022-12-08T14:15:35.550Z,6.72
2022-12-08T14:18:21.166Z,5.90
2022-12-08T14:23:51.465Z,6.70
2022-12-08T14:26:18.974Z,7.03
2022-12-08T14:28:46.554Z,6.55
2022-12-08T14:31:14.778Z,6.85
2022-12-08T14:33:43.042Z,7.10
2022-12-08T14:36:12.445Z,7.55
2022-12-08T14:38:40.124Z,7.45
2022-12-08T14:41:09.509Z,7.18
2022-12-08T14:43:37.154Z,7.55
2022-12-08T14:46:26.641Z,6.78
2022-12-08T14:48:56.651Z,6.78
2022-12-08T14:51:29.362Z,7.03
2022-12-08T14:54:01.043Z,6.47
2022-12-08T14:56:54.925Z,8.05
2022-12-08T14:59:35.662Z,9.40
2022-12-08T15:02:27.207Z,8.80
2022-12-08T15:05:16.990Z,10.73
2022-12-08T15:07:51.574Z,9.13
2022-12-08T15:10:26.608Z,9.85
2022-12-08T15:13:00.394Z,8.90
2022-12-08T15:15:29.080Z,9.00
2022-12-08T15:18:21.288Z,10.43
2022-12-08T15:20:51.597Z,8.82
2022-12-08T15:23:21.045Z,10.02
2022-12-08T15:25:49.749Z,12.45
2022-12-08T15:28:22.067Z,12.65
2022-12-08T15:30:53.109Z,12.77
2022-12-08T15:33:21.009Z,13.18
2022-12-08T15:35:50.320Z,12.32
2022-12-08T15:38:26.725Z,12.82
2022-12-08T15:40:55.152Z,11.15
2022-12-08T15:43:23.200Z,12.27
2022-12-08T15:45:59.151Z,11.80
2022-12-08T15:48:29.448Z,10.60
2022-12-08T15:50:57.981Z,11.13
2022-12-08T15:53:25.814Z,11.70
2022-12-08T15:56:25.633Z,12.85
2022-12-08T15:58:57.985Z,15.65
2022-12-08T16:01:26.602Z,21.50
2022-12-08T16:04:37.286Z,23.27
2022-12-08T16:09:43.401Z,18.83
2022-12-08T16:13:40.294Z,21.17
2022-12-08T16:18:23.997Z,13.40
2022-12-08T16:21:12.485Z,12.68
2022-12-08T16:23:44.689Z,12.73
2022-12-08T16:29:06.826Z,14.27
2022-12-08T16:31:34.839Z,15.38
2022-12-08T16:34:02.942Z,13.07
2022-12-08T16:36:30.531Z,14.05
2022-12-08T16:38:58.117Z,14.52
2022-12-08T16:41:44.668Z,13.40
2022-12-08T16:44:12.335Z,13.55
2022-12-08T16:46:39.891Z,12.80
2022-12-08T16:49:09.323Z,13.07
2022-12-08T16:51:37.127Z,14.35
2022-12-08T16:54:05.281Z,13.68
2022-12-08T16:56:33.743Z,14.35
2022-12-08T16:59:02.152Z,16.50
2022-12-08T17:01:30.190Z,15.45
2022-12-08T17:06:45.686Z,15.35
2022-12-08T17:09:13.351Z,26.35
2022-12-08T17:11:43.719Z,19.85
2022-12-08T17:14:14.896Z,17.80
2022-12-08T17:16:44.157Z,14.73
2022-12-08T17:19:15.545Z,15.32
2022-12-08T17:21:44.574Z,14.10
2022-12-08T17:24:15.830Z,15.70
2022-12-08T17:26:46.204Z,15.07
2022-12-08T17:29:14.168Z,17.67
2022-12-08T17:31:42.551Z,19.48
2022-12-08T17:34:11.456Z,17.23
2022-12-08T17:36:39.464Z,19.67
2022-12-08T17:39:12.012Z,18.55
2022-12-08T17:41:42.780Z,17.52
2022-12-08T17:44:13.210Z,26.80
2022-12-08T17:46:46.350Z,22.40
2022-12-08T17:49:21.169Z,19.67
2022-12-08T17:51:52.850Z,20.20
2022-12-08T17:54:20.977Z,20.08
2022-12-08T17:56:48.523Z,19.00
2022-12-08T17:59:16.603Z,18.42
2022-12-08T18:01:44.347Z,18.80
2022-12-08T18:04:12.934Z,18.27
2022-12-08T18:06:40.827Z,21.13
2022-12-08T18:09:09.036Z,20.65
2022-12-08T18:11:36.980Z,19.05
2022-12-08T18:14:09.501Z,19.63
2022-12-08T18:16:42.942Z,22.58
2022-12-08T18:19:12.099Z,30.52
2022-12-08T18:21:40.353Z,41.05
2022-12-08T18:24:08.846Z,42.28
2022-12-08T18:26:36.466Z,28.52
2022-12-08T18:29:04.105Z,25.80
2022-12-08T18:31:31.753Z,24.55
2022-12-08T18:33:59.677Z,28.70
2022-12-08T18:36:27.313Z,26.67
2022-12-08T18:38:55.069Z,25.02
2022-12-08T18:41:25.972Z,26.67
2022-12-08T18:43:55.331Z,26.48
2022-12-08T18:46:23.531Z,27.05
2022-12-08T18:48:52.204Z,25.80
2022-12-08T18:51:23.536Z,26.60
2022-12-08T18:53:52.070Z,29.58
2022-12-08T18:56:27.054Z,27.48
2022-12-08T18:59:02.600Z,27.27
2022-12-08T19:01:35.891Z,24.58
2022-12-08T19:04:38.436Z,27.63
2022-12-08T19:06:53.855Z,26.67
2022-12-08T19:09:21.671Z,27.48
2022-12-08T19:11:49.314Z,25.95
2022-12-08T19:14:19.221Z,23.85
2022-12-08T19:16:50.477Z,23.45
2022-12-08T19:19:18.279Z,23.85
2022-12-08T19:21:46.630Z,28.75
2022-12-08T19:24:14.494Z,25.38
2022-12-08T19:26:42.773Z,26.95
2022-12-08T19:29:11.414Z,28.05
2022-12-08T19:31:39.486Z,27.55
2022-12-08T19:34:09.237Z,31.00
2022-12-08T19:36:42.803Z,30.17
2022-12-08T19:39:41.629Z,27.88
2022-12-08T19:42:52.637Z,25.60
2022-12-08T19:45:22.165Z,32.45
2022-12-08T19:47:49.789Z,29.00
2022-12-08T19:50:38.536Z,27.92
2022-12-08T19:53:12.033Z,26.95
2022-12-08T19:55:40.207Z,27.75
2022-12-08T19:58:08.302Z,28.10
2022-12-08T20:00:38.480Z,44.17
2022-12-08T20:03:07.073Z,28.65
2022-12-08T20:05:36.543Z,27.50
2022-12-08T20:08:04.778Z,31.17
2022-12-08T20:10:35.756Z,28.55
2022-12-08T20:13:23.120Z,28.97
2022-12-08T20:15:50.933Z,25.80
2022-12-08T20:18:18.810Z,24.85
2022-12-08T20:20:46.980Z,27.35
2022-12-08T20:23:15.935Z,28.80
2022-12-08T20:25:45.842Z,29.48
2022-12-08T20:28:13.805Z,28.25
2022-12-08T20:30:44.966Z,29.50
2022-12-08T20:33:17.497Z,30.95
2022-12-08T20:35:47.630Z,28.20
2022-12-08T20:38:15.449Z,29.20
2022-12-08T20:40:44.133Z,26.63
2022-12-08T20:43:11.814Z,26.60
2022-12-08T20:45:39.359Z,26.75
2022-12-08T20:48:07.334Z,27.40
2022-12-08T20:50:35.266Z,25.80
2022-12-08T20:53:03.068Z,26.30
2022-12-08T20:55:30.914Z,26.13
2022-12-08T20:57:58.846Z,25.10
2022-12-08T21:00:27.934Z,24.52
2022-12-08T21:02:56.979Z,24.17
2022-12-08T21:05:25.449Z,23.73
2022-12-08T21:07:53.267Z,23.15
2022-12-08T21:10:21.218Z,22.77
2022-12-08T21:12:48.864Z,20.13
2022-12-08T21:15:16.732Z,20.58
2022-12-08T21:17:44.845Z,21.55
2022-12-08T21:20:12.931Z,33.60
2022-12-08T21:22:40.918Z,34.95
2022-12-08T21:25:09.303Z,36.03
2022-12-08T21:27:37.789Z,40.35
2022-12-08T21:30:07.320Z,34.60
2022-12-08T21:32:35.312Z,25.40
2022-12-08T21:35:03.011Z,23.73
2022-12-08T21:37:30.788Z,24.83
2022-12-08T21:39:58.441Z,21.20
2022-12-08T21:42:44.069Z,21.15
2022-12-08T21:45:17.267Z,20.15
2022-12-08T21:47:46.377Z,20.13
2022-12-08T21:50:14.695Z,20.50
2022-12-08T21:52:44.384Z,19.15
2022-12-08T21:55:13.089Z,18.48
2022-12-08T21:57:41.062Z,19.30
2022-12-08T22:00:13.674Z,17.85
2022-12-08T22:02:41.737Z,15.88
2022-12-08T22:05:10.198Z,14.63
2022-12-08T22:07:39.691Z,14.55
2022-12-08T22:10:08.790Z,14.93
2022-12-08T22:12:37.953Z,15.27
2022-12-08T22:15:07.559Z,16.73
2022-12-08T22:17:43.498Z,15.10
2022-12-08T22:20:14.184Z,14.15
2022-12-08T22:22:42.265Z,13.20
2022-12-08T22:25:13.733Z,14.88
2022-12-08T22:27:41.570Z,14.48
2022-12-08T22:30:10.080Z,13.40
2022-12-08T22:32:38.160Z,15.43
2022-12-08T22:35:06.822Z,14.43
2022-12-08T22:37:34.535Z,14.63
2022-12-08T22:40:02.081Z,13.35
2022-12-08T22:42:29.780Z,13.98
2022-12-08T22:44:57.392Z,14.48
2022-12-08T22:47:25.184Z,13.40
2022-12-08T22:49:52.967Z,15.30
2022-12-08T22:52:20.757Z,13.80
2022-12-08T22:54:48.850Z,14.90
2022-12-08T22:57:17.649Z,14.55
2022-12-08T22:59:45.180Z,16.58
2022-12-08T23:02:12.722Z,15.30
2022-12-08T23:04:40.524Z,15.27
2022-12-08T23:07:08.353Z,16.17
2022-12-08T23:09:35.937Z,16.67
2022-12-08T23:12:04.845Z,13.48
2022-12-08T23:14:32.388Z,13.98
2022-12-08T23:17:00.269Z,14.13
2022-12-08T23:19:27.941Z,14.20
2022-12-08T23:21:55.463Z,14.13
2022-12-08T23:24:23.146Z,14.43
2022-12-08T23:26:50.736Z,13.90
2022-12-08T23:29:18.322Z,14.43
2022-12-08T23:31:46.005Z,12.65
2022-12-08T23:34:13.897Z,12.75
2022-12-08T23:36:41.570Z,13.45
2022-12-08T23:39:10.858Z,12.73
2022-12-08T23:41:38.711Z,11.18
2022-12-08T23:44:06.579Z,11.95
2022-12-08T23:46:34.492Z,12.05
2022-12-08T23:49:02.330Z,12.38
2022-12-08T23:51:30.314Z,12.05
2022-12-08T23:53:57.996Z,12.10
2022-12-08T23:56:30.199Z,12.55
2022-12-08T23:58:59.928Z,14.40
